aviador You're here:

CYDL Decoded Metar

DEASE LAKE in BC, CANADA
Report Time2017-12-15 19:00:00
UTC Time2017-12-15 19:36:42
Flight Rules vfr VFR
Wind050° at 03 kt
W.Decomp.*RWY 02: 3.0 kt HW 0.3 kt RCW
W.Rank050° ranks 3
Current wind is below 050° avg. (4.5)
Visibility9999 m
Phenomena:N/A
Clouds:Few 006 Hf
Expected CloudBase > 400 ft AGL from Temp-Dew spread
CeilingNone
Temp-6°C (ISA -16)
Dew Point-7°C (93% RH)
AAT-9.9°C
QNH1010 hPa
Density Alt912 ft
Elevation2,677 ft
Report Wrong Elevation
Raw Report
METAR CYDL 151900Z AUTO 05003KT 040V110 9SM FEW006 M06/M07 A2983 RMK
SLP133=

Extra information for CYDL:More info

Metar Taf Metar & Taf Last 4 Metars F.Rules Stats Wind Profile Meteogram Temp Stats Airport Information Weather charts Add Link Nearby VenuesMetar ALERT Operation Metar Decoded Social comments